sensor_id;sensor_type;location;lat;lon;timestamp;P1;durP1;ratioP1;P2;durP2;ratioP2
21798;SDS011;24973;47.178;15.316;2022-08-19T00:01:02;13.40;;;4.33;;
21798;SDS011;24973;47.178;15.316;2022-08-19T00:03:52;7.57;;;3.13;;
21798;SDS011;24973;47.178;15.316;2022-08-19T00:06:42;5.30;;;2.63;;
21798;SDS011;24973;47.178;15.316;2022-08-19T00:09:34;5.57;;;2.40;;
21798;SDS011;24973;47.178;15.316;2022-08-19T00:12:23;7.57;;;2.37;;
21798;SDS011;24973;47.178;15.316;2022-08-19T00:15:14;5.17;;;2.60;;
21798;SDS011;24973;47.178;15.316;2022-08-19T00:18:06;6.33;;;2.53;;
21798;SDS011;24973;47.178;15.316;2022-08-19T00:21:06;9.30;;;2.20;;
21798;SDS011;24973;47.178;15.316;2022-08-19T00:24:05;9.57;;;2.50;;
21798;SDS011;24973;47.178;15.316;2022-08-19T00:26:55;3.70;;;2.17;;
21798;SDS011;24973;47.178;15.316;2022-08-19T00:29:45;7.63;;;3.07;;
21798;SDS011;24973;47.178;15.316;2022-08-19T00:32:35;11.20;;;4.17;;
21798;SDS011;24973;47.178;15.316;2022-08-19T00:35:26;7.97;;;2.77;;
21798;SDS011;24973;47.178;15.316;2022-08-19T00:38:15;7.30;;;3.10;;
21798;SDS011;24973;47.178;15.316;2022-08-19T00:41:09;8.77;;;2.47;;
21798;SDS011;24973;47.178;15.316;2022-08-19T00:44:02;5.43;;;3.03;;
21798;SDS011;24973;47.178;15.316;2022-08-19T00:46:55;11.40;;;3.43;;
21798;SDS011;24973;47.178;15.316;2022-08-19T00:49:47;12.73;;;3.90;;
21798;SDS011;24973;47.178;15.316;2022-08-19T00:52:59;8.90;;;3.13;;
21798;SDS011;24973;47.178;15.316;2022-08-19T00:55:51;11.87;;;3.33;;
21798;SDS011;24973;47.178;15.316;2022-08-19T00:58:43;5.33;;;3.20;;
21798;SDS011;24973;47.178;15.316;2022-08-19T01:01:48;6.60;;;2.93;;
21798;SDS011;24973;47.178;15.316;2022-08-19T01:04:37;9.77;;;3.40;;
21798;SDS011;24973;47.178;15.316;2022-08-19T01:07:28;8.93;;;7.17;;
21798;SDS011;24973;47.178;15.316;2022-08-19T01:10:32;7.43;;;2.50;;
21798;SDS011;24973;47.178;15.316;2022-08-19T01:13:26;7.43;;;3.43;;
21798;SDS011;24973;47.178;15.316;2022-08-19T01:16:36;6.20;;;3.60;;
21798;SDS011;24973;47.178;15.316;2022-08-19T01:19:31;5.13;;;2.70;;
21798;SDS011;24973;47.178;15.316;2022-08-19T01:22:28;6.30;;;3.37;;
21798;SDS011;24973;47.178;15.316;2022-08-19T01:25:26;4.80;;;3.20;;
21798;SDS011;24973;47.178;15.316;2022-08-19T01:28:26;7.77;;;3.07;;
21798;SDS011;24973;47.178;15.316;2022-08-19T01:31:29;6.53;;;3.37;;
21798;SDS011;24973;47.178;15.316;2022-08-19T01:34:19;7.50;;;3.40;;
21798;SDS011;24973;47.178;15.316;2022-08-19T01:37:21;4.57;;;2.63;;
21798;SDS011;24973;47.178;15.316;2022-08-19T01:40:15;8.07;;;3.53;;
21798;SDS011;24973;47.178;15.316;2022-08-19T01:43:11;5.10;;;2.73;;
21798;SDS011;24973;47.178;15.316;2022-08-19T01:46:01;9.13;;;3.27;;
21798;SDS011;24973;47.178;15.316;2022-08-19T01:48:50;5.03;;;3.47;;
21798;SDS011;24973;47.178;15.316;2022-08-19T01:51:40;7.40;;;3.40;;
21798;SDS011;24973;47.178;15.316;2022-08-19T01:54:29;6.93;;;4.00;;
21798;SDS011;24973;47.178;15.316;2022-08-19T01:57:20;10.07;;;4.17;;
21798;SDS011;24973;47.178;15.316;2022-08-19T02:00:12;8.90;;;4.27;;
21798;SDS011;24973;47.178;15.316;2022-08-19T02:03:06;5.23;;;3.13;;
21798;SDS011;24973;47.178;15.316;2022-08-19T02:05:59;7.63;;;3.53;;
21798;SDS011;24973;47.178;15.316;2022-08-19T02:08:49;8.20;;;4.27;;
21798;SDS011;24973;47.178;15.316;2022-08-19T02:11:40;12.00;;;3.70;;
21798;SDS011;24973;47.178;15.316;2022-08-19T02:14:31;8.40;;;3.87;;
21798;SDS011;24973;47.178;15.316;2022-08-19T02:17:22;9.47;;;3.73;;
21798;SDS011;24973;47.178;15.316;2022-08-19T02:20:11;4.27;;;3.17;;
21798;SDS011;24973;47.178;15.316;2022-08-19T02:23:04;4.57;;;3.37;;
21798;SDS011;24973;47.178;15.316;2022-08-19T02:25:58;9.30;;;3.63;;
21798;SDS011;24973;47.178;15.316;2022-08-19T02:28:47;7.43;;;3.70;;
21798;SDS011;24973;47.178;15.316;2022-08-19T02:31:37;14.17;;;3.90;;
21798;SDS011;24973;47.178;15.316;2022-08-19T02:34:26;5.93;;;3.20;;
21798;SDS011;24973;47.178;15.316;2022-08-19T02:37:15;7.70;;;3.70;;
21798;SDS011;24973;47.178;15.316;2022-08-19T02:40:22;7.83;;;4.10;;
21798;SDS011;24973;47.178;15.316;2022-08-19T02:43:11;8.43;;;3.33;;
21798;SDS011;24973;47.178;15.316;2022-08-19T02:46:00;6.57;;;3.53;;
21798;SDS011;24973;47.178;15.316;2022-08-19T02:48:51;6.30;;;3.17;;
21798;SDS011;24973;47.178;15.316;2022-08-19T02:51:43;7.63;;;3.43;;
21798;SDS011;24973;47.178;15.316;2022-08-19T02:54:34;9.50;;;3.80;;
21798;SDS011;24973;47.178;15.316;2022-08-19T02:57:24;8.67;;;3.90;;
21798;SDS011;24973;47.178;15.316;2022-08-19T03:00:17;9.03;;;3.50;;
21798;SDS011;24973;47.178;15.316;2022-08-19T03:03:07;7.80;;;4.23;;
21798;SDS011;24973;47.178;15.316;2022-08-19T03:06:06;6.30;;;4.67;;
21798;SDS011;24973;47.178;15.316;2022-08-19T03:09:27;8.17;;;3.77;;
21798;SDS011;24973;47.178;15.316;2022-08-19T03:12:16;6.73;;;3.97;;
21798;SDS011;24973;47.178;15.316;2022-08-19T03:15:08;8.70;;;4.07;;
21798;SDS011;24973;47.178;15.316;2022-08-19T03:17:57;10.43;;;4.40;;
21798;SDS011;24973;47.178;15.316;2022-08-19T03:20:47;10.43;;;3.97;;
21798;SDS011;24973;47.178;15.316;2022-08-19T03:23:42;4.17;;;3.33;;
21798;SDS011;24973;47.178;15.316;2022-08-19T03:26:47;5.63;;;4.20;;
21798;SDS011;24973;47.178;15.316;2022-08-19T03:29:38;11.27;;;4.10;;
21798;SDS011;24973;47.178;15.316;2022-08-19T03:32:31;9.57;;;4.60;;
21798;SDS011;24973;47.178;15.316;2022-08-19T03:35:23;7.20;;;3.67;;
21798;SDS011;24973;47.178;15.316;2022-08-19T03:38:14;11.20;;;4.03;;
21798;SDS011;24973;47.178;15.316;2022-08-19T03:41:12;6.80;;;4.90;;
21798;SDS011;24973;47.178;15.316;2022-08-19T03:44:15;6.90;;;4.07;;
21798;SDS011;24973;47.178;15.316;2022-08-19T03:47:07;12.20;;;4.87;;
21798;SDS011;24973;47.178;15.316;2022-08-19T03:49:57;8.40;;;4.07;;
21798;SDS011;24973;47.178;15.316;2022-08-19T03:52:56;11.63;;;6.00;;
21798;SDS011;24973;47.178;15.316;2022-08-19T03:55:49;9.77;;;4.60;;
21798;SDS011;24973;47.178;15.316;2022-08-19T03:58:39;8.33;;;4.50;;
21798;SDS011;24973;47.178;15.316;2022-08-19T04:01:29;8.77;;;5.43;;
21798;SDS011;24973;47.178;15.316;2022-08-19T04:04:18;9.03;;;5.37;;
21798;SDS011;24973;47.178;15.316;2022-08-19T04:07:08;13.47;;;6.20;;
21798;SDS011;24973;47.178;15.316;2022-08-19T04:09:59;11.43;;;6.73;;
21798;SDS011;24973;47.178;15.316;2022-08-19T04:12:48;12.60;;;7.00;;
21798;SDS011;24973;47.178;15.316;2022-08-19T04:15:40;13.50;;;6.47;;
21798;SDS011;24973;47.178;15.316;2022-08-19T04:18:30;12.03;;;6.87;;
21798;SDS011;24973;47.178;15.316;2022-08-19T04:21:25;11.00;;;7.17;;
21798;SDS011;24973;47.178;15.316;2022-08-19T04:24:32;9.37;;;6.97;;
21798;SDS011;24973;47.178;15.316;2022-08-19T04:27:22;9.93;;;6.90;;
21798;SDS011;24973;47.178;15.316;2022-08-19T04:30:20;12.40;;;6.80;;
21798;SDS011;24973;47.178;15.316;2022-08-19T04:33:25;15.30;;;7.37;;
21798;SDS011;24973;47.178;15.316;2022-08-19T04:36:15;11.67;;;6.60;;
21798;SDS011;24973;47.178;15.316;2022-08-19T04:39:26;11.87;;;6.27;;
21798;SDS011;24973;47.178;15.316;2022-08-19T04:42:30;10.67;;;6.83;;
21798;SDS011;24973;47.178;15.316;2022-08-19T04:45:29;7.50;;;6.13;;
21798;SDS011;24973;47.178;15.316;2022-08-19T04:48:18;10.07;;;6.97;;
21798;SDS011;24973;47.178;15.316;2022-08-19T04:51:16;9.80;;;6.33;;
21798;SDS011;24973;47.178;15.316;2022-08-19T04:54:07;11.60;;;5.50;;
21798;SDS011;24973;47.178;15.316;2022-08-19T04:56:58;8.57;;;5.37;;
21798;SDS011;24973;47.178;15.316;2022-08-19T04:59:48;9.93;;;5.77;;
21798;SDS011;24973;47.178;15.316;2022-08-19T05:02:49;10.50;;;4.83;;
21798;SDS011;24973;47.178;15.316;2022-08-19T05:05:39;9.50;;;5.70;;
21798;SDS011;24973;47.178;15.316;2022-08-19T05:08:30;14.10;;;5.57;;
21798;SDS011;24973;47.178;15.316;2022-08-19T05:11:21;8.50;;;6.00;;
21798;SDS011;24973;47.178;15.316;2022-08-19T05:14:15;10.77;;;7.40;;
21798;SDS011;24973;47.178;15.316;2022-08-19T05:17:12;11.20;;;7.87;;
21798;SDS011;24973;47.178;15.316;2022-08-19T05:20:19;12.67;;;7.43;;
21798;SDS011;24973;47.178;15.316;2022-08-19T05:23:25;16.83;;;8.43;;
21798;SDS011;24973;47.178;15.316;2022-08-19T05:26:15;13.17;;;7.63;;
21798;SDS011;24973;47.178;15.316;2022-08-19T05:29:07;13.80;;;7.80;;
21798;SDS011;24973;47.178;15.316;2022-08-19T05:31:58;15.97;;;8.23;;
21798;SDS011;24973;47.178;15.316;2022-08-19T05:34:48;12.20;;;6.57;;
21798;SDS011;24973;47.178;15.316;2022-08-19T05:37:37;16.10;;;9.00;;
21798;SDS011;24973;47.178;15.316;2022-08-19T05:40:28;12.07;;;7.43;;
21798;SDS011;24973;47.178;15.316;2022-08-19T05:43:18;11.93;;;8.47;;
21798;SDS011;24973;47.178;15.316;2022-08-19T05:46:07;10.50;;;7.37;;
21798;SDS011;24973;47.178;15.316;2022-08-19T05:48:56;7.63;;;6.20;;
21798;SDS011;24973;47.178;15.316;2022-08-19T05:51:45;7.47;;;6.27;;
21798;SDS011;24973;47.178;15.316;2022-08-19T05:54:40;10.80;;;6.07;;
21798;SDS011;24973;47.178;15.316;2022-08-19T05:57:34;8.30;;;6.57;;
21798;SDS011;24973;47.178;15.316;2022-08-19T06:00:24;10.17;;;6.83;;
21798;SDS011;24973;47.178;15.316;2022-08-19T06:03:13;9.53;;;7.17;;
21798;SDS011;24973;47.178;15.316;2022-08-19T06:06:02;9.77;;;7.60;;
21798;SDS011;24973;47.178;15.316;2022-08-19T06:08:52;8.70;;;6.67;;
21798;SDS011;24973;47.178;15.316;2022-08-19T06:11:43;13.00;;;7.47;;
21798;SDS011;24973;47.178;15.316;2022-08-19T06:14:41;9.77;;;6.47;;
21798;SDS011;24973;47.178;15.316;2022-08-19T06:17:35;10.43;;;6.00;;
21798;SDS011;24973;47.178;15.316;2022-08-19T06:20:38;13.53;;;6.80;;
21798;SDS011;24973;47.178;15.316;2022-08-19T06:23:40;9.93;;;6.00;;
21798;SDS011;24973;47.178;15.316;2022-08-19T06:26:29;11.23;;;5.07;;
21798;SDS011;24973;47.178;15.316;2022-08-19T06:29:19;11.77;;;6.03;;
21798;SDS011;24973;47.178;15.316;2022-08-19T06:32:14;9.17;;;5.60;;
21798;SDS011;24973;47.178;15.316;2022-08-19T06:35:10;9.83;;;5.13;;
21798;SDS011;24973;47.178;15.316;2022-08-19T06:38:02;9.60;;;5.97;;
21798;SDS011;24973;47.178;15.316;2022-08-19T06:41:00;10.60;;;4.47;;
21798;SDS011;24973;47.178;15.316;2022-08-19T06:43:50;10.87;;;5.77;;
21798;SDS011;24973;47.178;15.316;2022-08-19T06:46:43;11.43;;;4.70;;
21798;SDS011;24973;47.178;15.316;2022-08-19T06:49:32;9.50;;;5.43;;
21798;SDS011;24973;47.178;15.316;2022-08-19T06:52:32;8.93;;;5.90;;
21798;SDS011;24973;47.178;15.316;2022-08-19T06:55:23;7.03;;;4.90;;
21798;SDS011;24973;47.178;15.316;2022-08-19T06:58:15;6.83;;;5.10;;
21798;SDS011;24973;47.178;15.316;2022-08-19T07:01:07;15.00;;;6.73;;
21798;SDS011;24973;47.178;15.316;2022-08-19T07:03:57;8.70;;;5.93;;
21798;SDS011;24973;47.178;15.316;2022-08-19T07:06:47;9.10;;;4.43;;
21798;SDS011;24973;47.178;15.316;2022-08-19T07:09:38;9.43;;;5.07;;
21798;SDS011;24973;47.178;15.316;2022-08-19T07:12:30;6.57;;;4.63;;
21798;SDS011;24973;47.178;15.316;2022-08-19T07:15:21;7.63;;;4.50;;
21798;SDS011;24973;47.178;15.316;2022-08-19T07:18:10;9.93;;;5.40;;
21798;SDS011;24973;47.178;15.316;2022-08-19T07:21:03;10.13;;;5.50;;
21798;SDS011;24973;47.178;15.316;2022-08-19T07:23:53;10.60;;;5.77;;
21798;SDS011;24973;47.178;15.316;2022-08-19T07:26:44;9.87;;;6.13;;
21798;SDS011;24973;47.178;15.316;2022-08-19T07:29:34;7.77;;;4.43;;
21798;SDS011;24973;47.178;15.316;2022-08-19T07:32:24;7.37;;;4.57;;
21798;SDS011;24973;47.178;15.316;2022-08-19T07:35:17;5.63;;;4.23;;
21798;SDS011;24973;47.178;15.316;2022-08-19T07:38:07;9.23;;;4.07;;
21798;SDS011;24973;47.178;15.316;2022-08-19T07:40:56;9.20;;;4.47;;
21798;SDS011;24973;47.178;15.316;2022-08-19T07:43:47;8.00;;;3.53;;
21798;SDS011;24973;47.178;15.316;2022-08-19T07:46:37;4.83;;;3.57;;
21798;SDS011;24973;47.178;15.316;2022-08-19T07:49:32;5.80;;;3.70;;
21798;SDS011;24973;47.178;15.316;2022-08-19T07:52:21;12.17;;;4.53;;
21798;SDS011;24973;47.178;15.316;2022-08-19T07:55:11;5.50;;;3.13;;
21798;SDS011;24973;47.178;15.316;2022-08-19T07:57:59;4.87;;;3.73;;
21798;SDS011;24973;47.178;15.316;2022-08-19T08:00:50;7.27;;;2.97;;
21798;SDS011;24973;47.178;15.316;2022-08-19T08:03:39;8.37;;;2.80;;
21798;SDS011;24973;47.178;15.316;2022-08-19T08:06:45;5.67;;;2.97;;
21798;SDS011;24973;47.178;15.316;2022-08-19T08:09:51;4.90;;;3.03;;
21798;SDS011;24973;47.178;15.316;2022-08-19T08:12:46;5.80;;;3.17;;
21798;SDS011;24973;47.178;15.316;2022-08-19T08:15:36;6.13;;;2.90;;
21798;SDS011;24973;47.178;15.316;2022-08-19T08:18:29;6.50;;;3.53;;
21798;SDS011;24973;47.178;15.316;2022-08-19T08:21:28;11.07;;;3.23;;
21798;SDS011;24973;47.178;15.316;2022-08-19T08:24:16;3.50;;;3.20;;
21798;SDS011;24973;47.178;15.316;2022-08-19T08:27:06;4.70;;;2.73;;
21798;SDS011;24973;47.178;15.316;2022-08-19T08:29:55;3.43;;;2.77;;
21798;SDS011;24973;47.178;15.316;2022-08-19T08:32:53;6.33;;;3.07;;
21798;SDS011;24973;47.178;15.316;2022-08-19T08:35:43;5.80;;;3.50;;
21798;SDS011;24973;47.178;15.316;2022-08-19T08:38:33;4.23;;;3.13;;
21798;SDS011;24973;47.178;15.316;2022-08-19T08:41:28;3.83;;;2.67;;
21798;SDS011;24973;47.178;15.316;2022-08-19T08:44:28;5.90;;;3.43;;
21798;SDS011;24973;47.178;15.316;2022-08-19T08:47:29;5.47;;;3.10;;
21798;SDS011;24973;47.178;15.316;2022-08-19T08:50:25;6.47;;;3.10;;
21798;SDS011;24973;47.178;15.316;2022-08-19T08:53:24;9.13;;;3.27;;
21798;SDS011;24973;47.178;15.316;2022-08-19T08:56:13;5.10;;;2.60;;
21798;SDS011;24973;47.178;15.316;2022-08-19T08:59:04;4.83;;;2.70;;
21798;SDS011;24973;47.178;15.316;2022-08-19T09:01:58;4.83;;;2.57;;
21798;SDS011;24973;47.178;15.316;2022-08-19T09:04:47;7.17;;;2.37;;
21798;SDS011;24973;47.178;15.316;2022-08-19T09:07:39;4.67;;;2.70;;
21798;SDS011;24973;47.178;15.316;2022-08-19T09:10:39;2.90;;;2.60;;
21798;SDS011;24973;47.178;15.316;2022-08-19T09:13:42;8.37;;;2.93;;
21798;SDS011;24973;47.178;15.316;2022-08-19T09:16:43;3.67;;;2.73;;
21798;SDS011;24973;47.178;15.316;2022-08-19T09:19:31;6.00;;;2.70;;
21798;SDS011;24973;47.178;15.316;2022-08-19T09:22:23;5.03;;;3.00;;
21798;SDS011;24973;47.178;15.316;2022-08-19T09:25:14;4.40;;;2.73;;
21798;SDS011;24973;47.178;15.316;2022-08-19T09:28:09;4.97;;;2.60;;
21798;SDS011;24973;47.178;15.316;2022-08-19T09:31:06;2.77;;;2.57;;
21798;SDS011;24973;47.178;15.316;2022-08-19T09:33:55;6.37;;;3.07;;
21798;SDS011;24973;47.178;15.316;2022-08-19T09:36:44;4.23;;;2.73;;
21798;SDS011;24973;47.178;15.316;2022-08-19T09:39:36;4.87;;;2.70;;
21798;SDS011;24973;47.178;15.316;2022-08-19T09:44:12;7.15;;;3.10;;
21798;SDS011;24973;47.178;15.316;2022-08-19T09:47:01;5.20;;;3.10;;
21798;SDS011;24973;47.178;15.316;2022-08-19T09:49:58;5.70;;;3.05;;
21798;SDS011;24973;47.178;15.316;2022-08-19T09:52:47;6.80;;;3.78;;
21798;SDS011;24973;47.178;15.316;2022-08-19T09:55:45;7.45;;;3.65;;
21798;SDS011;24973;47.178;15.316;2022-08-19T09:58:37;6.28;;;3.45;;
21798;SDS011;24973;47.178;15.316;2022-08-19T10:01:28;3.78;;;3.38;;
21798;SDS011;24973;47.178;15.316;2022-08-19T10:04:19;5.03;;;3.20;;
21798;SDS011;24973;47.178;15.316;2022-08-19T10:07:08;6.78;;;2.90;;
21798;SDS011;24973;47.178;15.316;2022-08-19T10:09:57;7.75;;;3.47;;
21798;SDS011;24973;47.178;15.316;2022-08-19T10:12:48;5.82;;;3.10;;
21798;SDS011;24973;47.178;15.316;2022-08-19T10:15:38;5.38;;;3.30;;
21798;SDS011;24973;47.178;15.316;2022-08-19T10:18:29;6.65;;;3.60;;
21798;SDS011;24973;47.178;15.316;2022-08-19T10:21:20;7.25;;;3.60;;
21798;SDS011;24973;47.178;15.316;2022-08-19T10:24:12;4.88;;;3.47;;
21798;SDS011;24973;47.178;15.316;2022-08-19T10:27:01;5.07;;;3.72;;
21798;SDS011;24973;47.178;15.316;2022-08-19T10:29:52;4.37;;;2.60;;
21798;SDS011;24973;47.178;15.316;2022-08-19T10:32:41;4.97;;;2.87;;
21798;SDS011;24973;47.178;15.316;2022-08-19T10:35:32;5.23;;;2.93;;
21798;SDS011;24973;47.178;15.316;2022-08-19T10:38:22;9.17;;;2.80;;
21798;SDS011;24973;47.178;15.316;2022-08-19T10:41:12;4.70;;;2.67;;
21798;SDS011;24973;47.178;15.316;2022-08-19T10:44:04;5.03;;;3.17;;
21798;SDS011;24973;47.178;15.316;2022-08-19T10:46:57;4.93;;;3.43;;
21798;SDS011;24973;47.178;15.316;2022-08-19T10:49:48;2.93;;;2.67;;
21798;SDS011;24973;47.178;15.316;2022-08-19T10:52:55;4.80;;;3.97;;
21798;SDS011;24973;47.178;15.316;2022-08-19T10:56:00;5.17;;;2.97;;
21798;SDS011;24973;47.178;15.316;2022-08-19T10:59:07;5.70;;;3.10;;
21798;SDS011;24973;47.178;15.316;2022-08-19T11:02:01;6.30;;;3.80;;
21798;SDS011;24973;47.178;15.316;2022-08-19T11:04:59;3.93;;;3.53;;
21798;SDS011;24973;47.178;15.316;2022-08-19T11:07:50;7.60;;;3.77;;
21798;SDS011;24973;47.178;15.316;2022-08-19T11:10:42;4.77;;;2.90;;
21798;SDS011;24973;47.178;15.316;2022-08-19T11:13:32;5.13;;;2.60;;
21798;SDS011;24973;47.178;15.316;2022-08-19T11:16:26;5.67;;;3.00;;
21798;SDS011;24973;47.178;15.316;2022-08-19T11:19:16;5.23;;;2.93;;
21798;SDS011;24973;47.178;15.316;2022-08-19T11:22:07;11.73;;;3.53;;
21798;SDS011;24973;47.178;15.316;2022-08-19T11:24:56;5.60;;;3.10;;
21798;SDS011;24973;47.178;15.316;2022-08-19T11:27:48;2.30;;;2.00;;
21798;SDS011;24973;47.178;15.316;2022-08-19T11:30:38;7.03;;;3.17;;
21798;SDS011;24973;47.178;15.316;2022-08-19T11:33:30;6.87;;;2.43;;
21798;SDS011;24973;47.178;15.316;2022-08-19T11:36:19;10.37;;;3.30;;
21798;SDS011;24973;47.178;15.316;2022-08-19T11:39:10;7.43;;;2.67;;
21798;SDS011;24973;47.178;15.316;2022-08-19T11:42:01;4.60;;;2.30;;
21798;SDS011;24973;47.178;15.316;2022-08-19T11:45:13;7.03;;;3.27;;
21798;SDS011;24973;47.178;15.316;2022-08-19T11:48:03;12.63;;;3.03;;
21798;SDS011;24973;47.178;15.316;2022-08-19T11:50:52;5.10;;;2.50;;
21798;SDS011;24973;47.178;15.316;2022-08-19T11:53:43;5.73;;;2.80;;
21798;SDS011;24973;47.178;15.316;2022-08-19T11:56:32;3.93;;;2.37;;
21798;SDS011;24973;47.178;15.316;2022-08-19T11:59:21;7.37;;;3.13;;
21798;SDS011;24973;47.178;15.316;2022-08-19T12:02:14;4.47;;;2.37;;
21798;SDS011;24973;47.178;15.316;2022-08-19T12:05:03;6.33;;;2.20;;
21798;SDS011;24973;47.178;15.316;2022-08-19T12:07:57;4.70;;;2.53;;
21798;SDS011;24973;47.178;15.316;2022-08-19T12:10:46;5.47;;;2.13;;
21798;SDS011;24973;47.178;15.316;2022-08-19T12:13:34;4.43;;;2.33;;
21798;SDS011;24973;47.178;15.316;2022-08-19T12:16:26;4.90;;;2.37;;
21798;SDS011;24973;47.178;15.316;2022-08-19T12:19:18;6.50;;;2.70;;
21798;SDS011;24973;47.178;15.316;2022-08-19T12:22:07;6.67;;;3.07;;
21798;SDS011;24973;47.178;15.316;2022-08-19T12:24:56;6.20;;;2.90;;
21798;SDS011;24973;47.178;15.316;2022-08-19T12:27:47;4.97;;;2.40;;
21798;SDS011;24973;47.178;15.316;2022-08-19T12:30:42;9.90;;;2.67;;
21798;SDS011;24973;47.178;15.316;2022-08-19T12:33:33;6.90;;;2.83;;
21798;SDS011;24973;47.178;15.316;2022-08-19T12:36:24;7.10;;;2.93;;
21798;SDS011;24973;47.178;15.316;2022-08-19T12:39:13;7.70;;;3.78;;
21798;SDS011;24973;47.178;15.316;2022-08-19T12:42:06;4.95;;;2.63;;
21798;SDS011;24973;47.178;15.316;2022-08-19T12:44:55;6.15;;;2.75;;
21798;SDS011;24973;47.178;15.316;2022-08-19T12:47:50;6.88;;;2.63;;
21798;SDS011;24973;47.178;15.316;2022-08-19T12:50:40;7.50;;;3.30;;
21798;SDS011;24973;47.178;15.316;2022-08-19T12:53:33;7.28;;;2.67;;
21798;SDS011;24973;47.178;15.316;2022-08-19T12:56:22;7.13;;;2.92;;
21798;SDS011;24973;47.178;15.316;2022-08-19T12:59:11;12.02;;;3.08;;
21798;SDS011;24973;47.178;15.316;2022-08-19T13:02:00;8.30;;;2.75;;
21798;SDS011;24973;47.178;15.316;2022-08-19T13:07:18;4.07;;;1.80;;
21798;SDS011;24973;47.178;15.316;2022-08-19T13:10:12;8.75;;;2.35;;
21798;SDS011;24973;47.178;15.316;2022-08-19T13:13:05;7.80;;;2.15;;
21798;SDS011;24973;47.178;15.316;2022-08-19T13:15:59;5.68;;;2.50;;
21798;SDS011;24973;47.178;15.316;2022-08-19T13:18:50;6.55;;;1.75;;
21798;SDS011;24973;47.178;15.316;2022-08-19T13:21:39;5.28;;;2.35;;
21798;SDS011;24973;47.178;15.316;2022-08-19T13:24:28;6.60;;;1.95;;
21798;SDS011;24973;47.178;15.316;2022-08-19T13:27:19;5.90;;;2.13;;
21798;SDS011;24973;47.178;15.316;2022-08-19T13:30:30;6.43;;;2.10;;
21798;SDS011;24973;47.178;15.316;2022-08-19T13:33:38;6.50;;;2.40;;
21798;SDS011;24973;47.178;15.316;2022-08-19T13:36:27;6.63;;;2.10;;
21798;SDS011;24973;47.178;15.316;2022-08-19T13:39:15;5.28;;;2.05;;
21798;SDS011;24973;47.178;15.316;2022-08-19T13:42:04;4.55;;;1.80;;
21798;SDS011;24973;47.178;15.316;2022-08-19T13:44:56;5.35;;;2.45;;
21798;SDS011;24973;47.178;15.316;2022-08-19T13:47:45;4.25;;;2.47;;
21798;SDS011;24973;47.178;15.316;2022-08-19T13:50:38;10.23;;;2.25;;
21798;SDS011;24973;47.178;15.316;2022-08-19T13:53:33;6.20;;;2.22;;
21798;SDS011;24973;47.178;15.316;2022-08-19T13:56:24;5.95;;;2.63;;
21798;SDS011;24973;47.178;15.316;2022-08-19T13:59:13;6.75;;;2.28;;
21798;SDS011;24973;47.178;15.316;2022-08-19T14:02:05;4.45;;;2.20;;
21798;SDS011;24973;47.178;15.316;2022-08-19T14:04:55;6.53;;;3.00;;
21798;SDS011;24973;47.178;15.316;2022-08-19T14:07:44;10.10;;;2.70;;
21798;SDS011;24973;47.178;15.316;2022-08-19T14:10:33;9.45;;;1.95;;
21798;SDS011;24973;47.178;15.316;2022-08-19T14:13:23;5.60;;;3.22;;
21798;SDS011;24973;47.178;15.316;2022-08-19T14:16:13;6.97;;;2.58;;
21798;SDS011;24973;47.178;15.316;2022-08-19T14:19:12;6.45;;;1.90;;
21798;SDS011;24973;47.178;15.316;2022-08-19T14:22:03;9.77;;;1.95;;
21798;SDS011;24973;47.178;15.316;2022-08-19T14:24:52;6.13;;;2.20;;
21798;SDS011;24973;47.178;15.316;2022-08-19T14:27:41;7.15;;;2.22;;
21798;SDS011;24973;47.178;15.316;2022-08-19T14:30:31;4.65;;;2.17;;
21798;SDS011;24973;47.178;15.316;2022-08-19T14:33:24;2.67;;;2.30;;
21798;SDS011;24973;47.178;15.316;2022-08-19T14:36:15;3.92;;;2.38;;
21798;SDS011;24973;47.178;15.316;2022-08-19T14:39:05;8.85;;;2.50;;
21798;SDS011;24973;47.178;15.316;2022-08-19T14:41:53;5.47;;;2.15;;
21798;SDS011;24973;47.178;15.316;2022-08-19T14:44:46;5.70;;;2.33;;
21798;SDS011;24973;47.178;15.316;2022-08-19T14:47:36;5.45;;;2.42;;
21798;SDS011;24973;47.178;15.316;2022-08-19T14:50:25;5.25;;;2.65;;
21798;SDS011;24973;47.178;15.316;2022-08-19T14:53:19;5.22;;;2.17;;
21798;SDS011;24973;47.178;15.316;2022-08-19T14:56:12;7.80;;;2.60;;
21798;SDS011;24973;47.178;15.316;2022-08-19T14:59:04;7.20;;;2.85;;
21798;SDS011;24973;47.178;15.316;2022-08-19T15:01:53;6.22;;;2.25;;
21798;SDS011;24973;47.178;15.316;2022-08-19T15:04:42;5.13;;;2.67;;
21798;SDS011;24973;47.178;15.316;2022-08-19T15:07:31;6.72;;;3.03;;
21798;SDS011;24973;47.178;15.316;2022-08-19T15:10:23;6.10;;;2.17;;
21798;SDS011;24973;47.178;15.316;2022-08-19T15:13:12;4.68;;;2.47;;
21798;SDS011;24973;47.178;15.316;2022-08-19T15:16:01;6.85;;;2.85;;
21798;SDS011;24973;47.178;15.316;2022-08-19T15:18:51;7.03;;;2.08;;
21798;SDS011;24973;47.178;15.316;2022-08-19T15:21:42;4.93;;;2.72;;
21798;SDS011;24973;47.178;15.316;2022-08-19T15:24:31;5.70;;;2.22;;
21798;SDS011;24973;47.178;15.316;2022-08-19T15:27:23;9.23;;;2.50;;
21798;SDS011;24973;47.178;15.316;2022-08-19T15:30:17;11.50;;;2.15;;
21798;SDS011;24973;47.178;15.316;2022-08-19T15:33:11;9.82;;;3.40;;
21798;SDS011;24973;47.178;15.316;2022-08-19T15:36:02;8.43;;;2.80;;
21798;SDS011;24973;47.178;15.316;2022-08-19T15:38:52;7.57;;;2.60;;
21798;SDS011;24973;47.178;15.316;2022-08-19T15:41:44;7.72;;;2.67;;
21798;SDS011;24973;47.178;15.316;2022-08-19T15:44:42;6.07;;;2.53;;
21798;SDS011;24973;47.178;15.316;2022-08-19T15:47:31;5.63;;;2.22;;
21798;SDS011;24973;47.178;15.316;2022-08-19T15:50:21;7.70;;;3.35;;
21798;SDS011;24973;47.178;15.316;2022-08-19T15:53:10;7.13;;;2.85;;
21798;SDS011;24973;47.178;15.316;2022-08-19T15:55:59;7.65;;;3.53;;
21798;SDS011;24973;47.178;15.316;2022-08-19T15:58:47;6.25;;;2.65;;
21798;SDS011;24973;47.178;15.316;2022-08-19T16:01:55;10.13;;;2.53;;
21798;SDS011;24973;47.178;15.316;2022-08-19T16:05:02;8.48;;;2.88;;
21798;SDS011;24973;47.178;15.316;2022-08-19T16:08:14;10.50;;;3.33;;
21798;SDS011;24973;47.178;15.316;2022-08-19T16:11:07;7.93;;;2.97;;
21798;SDS011;24973;47.178;15.316;2022-08-19T16:13:56;7.33;;;2.97;;
21798;SDS011;24973;47.178;15.316;2022-08-19T16:16:46;11.97;;;4.03;;
21798;SDS011;24973;47.178;15.316;2022-08-19T16:19:36;7.73;;;3.97;;
21798;SDS011;24973;47.178;15.316;2022-08-19T16:22:28;10.13;;;2.60;;
21798;SDS011;24973;47.178;15.316;2022-08-19T16:25:19;8.20;;;3.37;;
21798;SDS011;24973;47.178;15.316;2022-08-19T16:28:14;5.17;;;2.33;;
21798;SDS011;24973;47.178;15.316;2022-08-19T16:31:03;4.03;;;2.97;;
21798;SDS011;24973;47.178;15.316;2022-08-19T16:33:52;7.83;;;4.43;;
21798;SDS011;24973;47.178;15.316;2022-08-19T16:36:43;5.63;;;2.80;;
21798;SDS011;24973;47.178;15.316;2022-08-19T16:39:31;6.90;;;3.27;;
21798;SDS011;24973;47.178;15.316;2022-08-19T16:42:20;9.13;;;2.77;;
21798;SDS011;24973;47.178;15.316;2022-08-19T16:45:10;11.43;;;3.87;;
21798;SDS011;24973;47.178;15.316;2022-08-19T16:48:00;6.03;;;2.83;;
21798;SDS011;24973;47.178;15.316;2022-08-19T16:50:49;6.87;;;3.70;;
21798;SDS011;24973;47.178;15.316;2022-08-19T16:53:40;6.67;;;3.03;;
21798;SDS011;24973;47.178;15.316;2022-08-19T16:56:30;6.27;;;3.33;;
21798;SDS011;24973;47.178;15.316;2022-08-19T16:59:33;7.73;;;2.70;;
21798;SDS011;24973;47.178;15.316;2022-08-19T17:02:22;8.20;;;5.00;;
21798;SDS011;24973;47.178;15.316;2022-08-19T17:05:19;6.73;;;2.73;;